createdAt,value
2023-01-13T00:01:26.878Z,65.75
2023-01-13T00:03:53.395Z,65.88
2023-01-13T00:06:23.186Z,66.48
2023-01-13T00:08:51.037Z,65.68
2023-01-13T00:11:18.735Z,66.03
2023-01-13T00:13:45.449Z,65.71
2023-01-13T00:16:14.081Z,65.92
2023-01-13T00:18:40.494Z,65.67
2023-01-13T00:21:21.338Z,64.83
2023-01-13T00:23:48.301Z,65.50
2023-01-13T00:26:22.903Z,66.31
2023-01-13T00:28:49.993Z,65.71
2023-01-13T00:31:19.313Z,65.89
2023-01-13T00:33:46.091Z,65.65
2023-01-13T00:36:14.527Z,65.40
2023-01-13T00:38:41.966Z,65.58
2023-01-13T00:41:12.635Z,65.40
2023-01-13T00:43:39.174Z,65.87
2023-01-13T00:46:07.365Z,65.64
2023-01-13T00:48:34.247Z,65.96
2023-01-13T00:51:05.960Z,66.19
2023-01-13T00:53:40.690Z,65.53
2023-01-13T00:56:11.481Z,65.27
2023-01-13T00:58:37.969Z,65.87
2023-01-13T01:01:07.266Z,65.63
2023-01-13T01:03:35.466Z,65.88
2023-01-13T01:06:08.081Z,65.84
2023-01-13T01:08:37.977Z,65.77
2023-01-13T01:11:12.502Z,65.98
2023-01-13T01:13:39.325Z,66.17
2023-01-13T01:16:14.397Z,65.74
2023-01-13T01:18:43.581Z,65.95
2023-01-13T01:21:10.593Z,65.78
2023-01-13T01:23:38.275Z,65.01
2023-01-13T01:26:12.005Z,65.11
2023-01-13T01:28:39.227Z,66.25
2023-01-13T01:31:11.205Z,65.75
2023-01-13T01:33:37.625Z,65.53
2023-01-13T01:36:04.448Z,65.55
2023-01-13T01:38:30.902Z,65.02
2023-01-13T01:40:58.770Z,65.26
2023-01-13T01:44:04.277Z,65.03
2023-01-13T01:46:41.976Z,65.52
2023-01-13T01:49:16.027Z,65.21
2023-01-13T01:51:48.398Z,66.18
2023-01-13T01:54:21.202Z,65.94
2023-01-13T01:56:48.467Z,65.55
2023-01-13T01:59:15.644Z,65.08
2023-01-13T02:01:43.124Z,65.26
2023-01-13T02:04:17.308Z,65.33
2023-01-13T02:06:44.842Z,65.23
2023-01-13T02:09:11.524Z,64.79
2023-01-13T02:11:38.072Z,65.99
2023-01-13T02:14:04.466Z,65.43
2023-01-13T02:16:31.776Z,65.54
2023-01-13T02:19:23.315Z,65.65
2023-01-13T02:22:21.499Z,65.50
2023-01-13T02:25:10.812Z,65.74
2023-01-13T02:27:59.171Z,64.97
2023-01-13T02:30:40.640Z,65.98
2023-01-13T02:33:36.540Z,64.92
2023-01-13T02:36:15.530Z,65.10
2023-01-13T02:38:56.339Z,65.57
2023-01-13T02:41:37.706Z,64.97
2023-01-13T02:44:05.485Z,65.31
2023-01-13T02:46:48.391Z,64.71
2023-01-13T02:49:24.476Z,65.17
2023-01-13T02:51:53.032Z,65.00
2023-01-13T02:54:24.422Z,65.48
2023-01-13T02:56:53.189Z,65.34
2023-01-13T02:59:20.332Z,65.88
2023-01-13T03:01:48.860Z,66.13
2023-01-13T03:04:49.171Z,66.07
2023-01-13T03:07:40.731Z,65.82
2023-01-13T03:10:35.993Z,65.80
2023-01-13T03:13:23.596Z,64.77
2023-01-13T03:16:31.722Z,65.26
2023-01-13T03:19:24.735Z,65.50
2023-01-13T03:22:26.549Z,65.63
2023-01-13T03:25:18.211Z,65.75
2023-01-13T03:27:56.925Z,65.58
2023-01-13T03:30:30.016Z,65.58
2023-01-13T03:33:08.833Z,65.81
2023-01-13T03:35:40.379Z,65.94
2023-01-13T03:38:12.176Z,65.57
2023-01-13T03:40:51.911Z,65.81
2023-01-13T03:43:24.016Z,65.50
2023-01-13T03:45:56.279Z,65.90
2023-01-13T03:48:26.111Z,66.24
2023-01-13T03:50:55.948Z,65.32
2023-01-13T03:53:37.658Z,66.02
2023-01-13T03:56:15.537Z,66.32
2023-01-13T03:58:47.582Z,66.64
2023-01-13T04:01:26.578Z,66.83
2023-01-13T04:04:10.975Z,66.74
2023-01-13T04:06:49.217Z,66.70
2023-01-13T04:09:18.625Z,66.66
2023-01-13T04:11:52.757Z,67.04
2023-01-13T04:14:22.197Z,67.36
2023-01-13T04:16:49.176Z,67.00
2023-01-13T04:19:15.598Z,66.76
2023-01-13T04:21:41.966Z,67.39
2023-01-13T04:24:09.087Z,67.23
2023-01-13T04:26:35.467Z,67.58
2023-01-13T04:29:01.848Z,67.01
2023-01-13T04:31:28.326Z,66.81
2023-01-13T04:33:54.647Z,67.66
2023-01-13T04:36:21.030Z,66.90
2023-01-13T04:38:47.339Z,66.86
2023-01-13T04:41:13.626Z,68.08
2023-01-13T04:43:39.918Z,68.05
2023-01-13T04:46:06.242Z,67.14
2023-01-13T04:48:32.585Z,68.44
2023-01-13T04:50:58.975Z,67.70
2023-01-13T04:53:25.240Z,67.74
2023-01-13T04:55:51.533Z,67.39
2023-01-13T04:58:18.071Z,67.71
2023-01-13T05:00:44.355Z,67.91
2023-01-13T05:03:10.675Z,68.20
2023-01-13T05:05:36.993Z,67.37
2023-01-13T05:08:04.106Z,67.85
2023-01-13T05:10:30.453Z,68.30
2023-01-13T05:12:57.016Z,67.64
2023-01-13T05:15:23.469Z,68.03
2023-01-13T05:17:50.176Z,68.08
2023-01-13T05:20:16.719Z,68.11
2023-01-13T05:22:42.981Z,67.80
2023-01-13T05:25:10.443Z,68.39
2023-01-13T05:27:36.922Z,67.80
2023-01-13T05:30:04.725Z,67.47
2023-01-13T05:32:31.110Z,67.95
2023-01-13T05:34:57.427Z,68.18
2023-01-13T05:37:24.457Z,68.05
2023-01-13T05:39:50.888Z,68.34
2023-01-13T05:42:17.212Z,68.27
2023-01-13T05:44:43.499Z,68.60
2023-01-13T05:47:10.369Z,68.57
2023-01-13T05:49:36.781Z,68.45
2023-01-13T05:52:03.137Z,69.06
2023-01-13T05:54:29.409Z,68.10
2023-01-13T05:56:55.774Z,68.05
2023-01-13T05:59:22.094Z,68.44
2023-01-13T06:01:48.472Z,68.62
2023-01-13T06:04:14.783Z,68.34
2023-01-13T06:06:41.090Z,68.15
2023-01-13T06:09:07.395Z,67.54
2023-01-13T06:11:33.798Z,67.30
2023-01-13T06:14:00.065Z,68.06
2023-01-13T06:16:26.406Z,67.99
2023-01-13T06:18:52.727Z,67.34
2023-01-13T06:21:19.037Z,67.70
2023-01-13T06:23:45.362Z,67.24
2023-01-13T06:26:18.897Z,67.30
2023-01-13T06:28:45.456Z,67.23
2023-01-13T06:31:12.226Z,67.89
2023-01-13T06:33:47.675Z,67.54
2023-01-13T06:36:19.343Z,67.84
2023-01-13T06:38:49.428Z,67.77
2023-01-13T06:41:16.775Z,67.00
2023-01-13T06:43:43.155Z,67.06
2023-01-13T06:46:09.597Z,67.38
2023-01-13T06:48:36.053Z,66.68
2023-01-13T06:51:03.887Z,66.95
2023-01-13T06:53:30.613Z,67.66
2023-01-13T06:55:56.968Z,67.36
2023-01-13T06:58:23.388Z,66.69
2023-01-13T07:00:49.856Z,66.37
2023-01-13T07:03:18.483Z,66.61
2023-01-13T07:05:56.229Z,67.21
2023-01-13T07:08:24.291Z,67.13
2023-01-13T07:10:50.851Z,66.62
2023-01-13T07:13:17.134Z,65.79
2023-01-13T07:15:56.279Z,66.20
2023-01-13T07:18:22.943Z,65.60
2023-01-13T07:20:54.000Z,65.08
2023-01-13T07:23:20.328Z,65.25
2023-01-13T07:25:46.705Z,66.11
2023-01-13T07:28:13.008Z,65.60
2023-01-13T07:30:39.309Z,66.30
2023-01-13T07:33:05.592Z,65.16
2023-01-13T07:35:31.915Z,66.30
2023-01-13T07:37:58.218Z,65.79
2023-01-13T07:40:24.529Z,64.91
2023-01-13T07:42:50.910Z,65.67
2023-01-13T07:45:17.232Z,65.43
2023-01-13T07:47:43.539Z,65.51
2023-01-13T07:50:11.463Z,65.15
2023-01-13T07:52:37.730Z,65.32
2023-01-13T07:55:04.457Z,65.69
2023-01-13T07:57:30.772Z,65.36
2023-01-13T07:59:57.063Z,64.95
2023-01-13T08:02:23.536Z,64.96
2023-01-13T08:04:49.940Z,65.14
2023-01-13T08:07:16.242Z,65.60
2023-01-13T08:09:42.554Z,65.42
2023-01-13T08:12:08.956Z,65.56
2023-01-13T08:14:35.343Z,65.78
2023-01-13T08:17:01.646Z,64.91
2023-01-13T08:19:27.937Z,65.46
2023-01-13T08:21:54.331Z,65.35
2023-01-13T08:24:20.644Z,65.51
2023-01-13T08:26:46.939Z,66.04
2023-01-13T08:29:15.059Z,65.31
2023-01-13T08:31:41.626Z,65.20
2023-01-13T08:34:07.962Z,65.04
2023-01-13T08:36:34.363Z,65.51
2023-01-13T08:39:00.685Z,65.03
2023-01-13T08:41:26.978Z,66.34
2023-01-13T08:43:53.659Z,65.37
2023-01-13T08:46:20.031Z,65.84
2023-01-13T08:48:46.365Z,65.59
2023-01-13T08:51:13.015Z,65.77
2023-01-13T08:53:39.305Z,66.53
2023-01-13T08:56:09.155Z,66.14
2023-01-13T08:58:35.462Z,66.12
2023-01-13T09:01:06.341Z,65.43
2023-01-13T09:03:32.943Z,66.54
2023-01-13T09:05:59.308Z,66.16
2023-01-13T09:08:25.811Z,66.05
2023-01-13T09:10:52.158Z,66.23
2023-01-13T09:13:18.454Z,66.96
2023-01-13T09:15:45.869Z,67.56
2023-01-13T09:18:12.313Z,68.95
2023-01-13T09:20:39.165Z,69.17
2023-01-13T09:23:08.839Z,68.10
2023-01-13T09:25:36.266Z,67.79
2023-01-13T09:28:02.856Z,69.70
2023-01-13T09:30:29.398Z,69.38
2023-01-13T09:32:58.396Z,69.56
2023-01-13T09:35:24.834Z,69.66
2023-01-13T09:37:51.157Z,71.36
2023-01-13T09:40:20.620Z,72.17
2023-01-13T09:42:55.297Z,72.24
2023-01-13T09:45:29.004Z,72.73
2023-01-13T09:48:05.744Z,73.24
2023-01-13T09:50:54.115Z,74.55
2023-01-13T09:53:25.651Z,73.97
2023-01-13T09:55:52.058Z,73.92
2023-01-13T09:58:19.207Z,74.66
2023-01-13T10:01:00.139Z,76.52
2023-01-13T10:03:29.140Z,76.74
2023-01-13T10:06:13.666Z,77.37
2023-01-13T10:08:45.811Z,77.76
2023-01-13T10:11:24.034Z,78.50
2023-01-13T10:13:57.181Z,78.65
2023-01-13T10:16:54.861Z,78.08
2023-01-13T10:19:34.322Z,80.42
2023-01-13T10:22:15.132Z,80.00
2023-01-13T10:25:16.702Z,80.61
2023-01-13T10:27:43.018Z,79.86
2023-01-13T10:30:17.665Z,79.32
2023-01-13T10:32:50.346Z,79.17
2023-01-13T10:35:16.877Z,79.85
2023-01-13T10:37:56.644Z,80.64
2023-01-13T10:40:23.287Z,80.65
2023-01-13T10:43:04.309Z,80.47
2023-01-13T10:45:30.655Z,79.84
2023-01-13T10:48:07.260Z,80.45
2023-01-13T10:50:36.093Z,79.81
2023-01-13T10:53:17.040Z,79.33
2023-01-13T10:55:43.456Z,78.58
2023-01-13T10:58:20.498Z,79.21
2023-01-13T11:00:48.953Z,79.35
2023-01-13T11:03:23.991Z,78.65
2023-01-13T11:05:58.329Z,78.08
2023-01-13T11:08:29.662Z,77.64
2023-01-13T11:10:58.557Z,76.51
2023-01-13T11:13:35.641Z,76.84
2023-01-13T11:16:15.367Z,76.92
2023-01-13T11:18:44.639Z,76.02
2023-01-13T11:21:22.860Z,75.18
2023-01-13T11:24:06.494Z,75.53
2023-01-13T11:26:53.533Z,75.10
2023-01-13T11:29:43.107Z,73.58
2023-01-13T11:32:12.921Z,73.60
2023-01-13T11:34:41.251Z,74.26
2023-01-13T11:37:17.896Z,74.30
2023-01-13T11:39:53.648Z,74.61
2023-01-13T11:42:32.082Z,75.16
2023-01-13T11:45:20.028Z,74.69
2023-01-13T11:47:50.969Z,74.92
2023-01-13T11:50:20.573Z,75.92
2023-01-13T11:53:07.268Z,75.46
2023-01-13T11:55:47.717Z,75.30
2023-01-13T11:58:23.433Z,76.60
2023-01-13T12:01:23.396Z,74.91
2023-01-13T12:04:14.251Z,74.33
2023-01-13T12:06:41.867Z,73.67
2023-01-13T12:09:24.145Z,72.38
2023-01-13T12:12:13.684Z,73.31
2023-01-13T12:14:54.326Z,73.51
2023-01-13T12:17:46.650Z,72.39
2023-01-13T12:20:58.268Z,72.95
2023-01-13T12:23:53.577Z,72.35
2023-01-13T12:26:19.898Z,72.78
2023-01-13T12:28:56.741Z,72.59
2023-01-13T12:31:23.817Z,70.85
2023-01-13T12:33:59.226Z,70.38
2023-01-13T12:36:55.951Z,69.10
2023-01-13T12:39:45.539Z,68.32
2023-01-13T12:42:20.300Z,69.65
2023-01-13T12:45:20.586Z,70.03
2023-01-13T12:47:47.067Z,70.84
2023-01-13T12:50:22.136Z,71.11
2023-01-13T12:52:49.846Z,70.90
2023-01-13T12:55:31.889Z,69.11
2023-01-13T12:58:05.687Z,69.14
2023-01-13T13:00:41.120Z,70.60
2023-01-13T13:03:07.470Z,69.75
2023-01-13T13:05:48.006Z,70.51
2023-01-13T13:08:41.526Z,70.29
2023-01-13T13:11:13.835Z,70.53
2023-01-13T13:13:47.689Z,69.57
2023-01-13T13:16:26.196Z,70.06
2023-01-13T13:18:53.499Z,70.04
2023-01-13T13:21:19.959Z,70.86
2023-01-13T13:23:55.433Z,69.99
2023-01-13T13:26:28.941Z,68.71
2023-01-13T13:29:20.127Z,68.75
2023-01-13T13:32:11.095Z,69.24
2023-01-13T13:35:07.581Z,68.52
2023-01-13T13:37:49.473Z,69.28
2023-01-13T13:40:15.889Z,70.31
2023-01-13T13:42:57.200Z,70.83
2023-01-13T13:45:25.891Z,70.21
2023-01-13T13:47:52.202Z,70.31
2023-01-13T13:50:20.452Z,70.27
2023-01-13T13:53:01.883Z,70.89
2023-01-13T13:55:29.936Z,71.92
2023-01-13T13:57:57.235Z,70.80
2023-01-13T14:00:27.655Z,71.42
2023-01-13T14:02:57.822Z,72.12
2023-01-13T14:05:36.891Z,72.83
2023-01-13T14:08:09.073Z,73.25
2023-01-13T14:10:38.398Z,70.46
2023-01-13T14:13:29.512Z,71.46
2023-01-13T14:15:58.698Z,72.57
2023-01-13T14:18:26.378Z,70.65
2023-01-13T14:20:53.708Z,69.87
2023-01-13T14:23:27.268Z,70.18
2023-01-13T14:25:54.225Z,70.29
2023-01-13T14:28:29.982Z,67.60
2023-01-13T14:30:57.069Z,68.38
2023-01-13T14:33:39.457Z,67.37
2023-01-13T14:36:24.275Z,66.45
2023-01-13T14:39:10.504Z,66.75
2023-01-13T14:41:36.856Z,66.15
2023-01-13T14:44:24.323Z,67.12
2023-01-13T14:46:51.807Z,68.09
2023-01-13T14:49:36.725Z,67.25
2023-01-13T14:52:14.515Z,67.89
2023-01-13T14:54:40.767Z,68.63
2023-01-13T14:57:27.427Z,68.12
2023-01-13T15:00:05.601Z,68.92
2023-01-13T15:02:33.536Z,69.00
2023-01-13T15:05:18.918Z,69.72
2023-01-13T15:07:52.328Z,69.74
2023-01-13T15:10:24.889Z,70.64
2023-01-13T15:12:54.210Z,70.39
2023-01-13T15:15:29.604Z,71.51
2023-01-13T15:17:56.911Z,71.78
2023-01-13T15:20:24.549Z,71.82
2023-01-13T15:22:51.600Z,71.54
2023-01-13T15:25:18.558Z,71.51
2023-01-13T15:27:46.348Z,72.30
2023-01-13T15:30:19.218Z,72.44
2023-01-13T15:32:46.364Z,72.65
2023-01-13T15:35:14.298Z,72.25
2023-01-13T15:37:41.716Z,72.94
2023-01-13T15:40:20.574Z,72.45
2023-01-13T15:42:47.716Z,72.58
2023-01-13T15:45:14.234Z,72.60
2023-01-13T15:47:40.640Z,71.76
2023-01-13T15:50:13.965Z,71.95
2023-01-13T15:52:40.323Z,71.93
2023-01-13T15:55:06.867Z,72.29
2023-01-13T15:57:36.083Z,72.00
2023-01-13T16:00:07.777Z,72.09
2023-01-13T16:02:34.481Z,71.84
2023-01-13T16:05:00.889Z,71.60
2023-01-13T16:07:27.181Z,71.03
2023-01-13T16:09:53.987Z,71.38
2023-01-13T16:12:20.401Z,70.51
2023-01-13T16:14:46.793Z,70.75
2023-01-13T16:17:21.675Z,71.28
2023-01-13T16:19:47.994Z,70.91
2023-01-13T16:22:15.748Z,70.96
2023-01-13T16:24:42.385Z,71.27
2023-01-13T16:27:19.417Z,71.43
2023-01-13T16:29:46.701Z,71.23
2023-01-13T16:32:13.384Z,71.49
2023-01-13T16:34:39.742Z,71.10
2023-01-13T16:37:12.632Z,71.38
2023-01-13T16:39:38.897Z,71.10
2023-01-13T16:42:05.330Z,71.04
2023-01-13T16:44:31.624Z,71.51
2023-01-13T16:46:57.897Z,70.99
2023-01-13T16:49:24.271Z,70.42
2023-01-13T16:51:50.690Z,69.25
2023-01-13T16:54:16.978Z,69.31
2023-01-13T16:56:43.288Z,67.98
2023-01-13T16:59:12.663Z,67.63
2023-01-13T17:01:41.109Z,67.85
2023-01-13T17:04:15.127Z,68.59
2023-01-13T17:06:53.128Z,69.20
2023-01-13T17:09:22.317Z,69.08
2023-01-13T17:11:49.071Z,69.54
2023-01-13T17:14:19.323Z,69.70
2023-01-13T17:16:46.477Z,70.74
2023-01-13T17:19:13.343Z,70.41
2023-01-13T17:21:39.905Z,70.53
2023-01-13T17:24:06.681Z,70.60
2023-01-13T17:26:35.755Z,71.12
2023-01-13T17:29:05.498Z,71.08
2023-01-13T17:31:32.415Z,71.91
2023-01-13T17:33:58.767Z,72.12
2023-01-13T17:36:25.087Z,72.69
2023-01-13T17:38:52.137Z,72.63
2023-01-13T17:41:18.487Z,72.82
2023-01-13T17:43:44.955Z,72.70
2023-01-13T17:46:12.789Z,72.50
2023-01-13T17:48:39.371Z,72.95
2023-01-13T17:51:10.940Z,73.76
2023-01-13T17:53:37.267Z,72.71
2023-01-13T17:56:03.679Z,72.29
2023-01-13T17:58:30.109Z,73.01
2023-01-13T18:00:56.459Z,72.01
2023-01-13T18:03:22.785Z,71.92
2023-01-13T18:05:49.291Z,71.99
2023-01-13T18:08:15.582Z,72.42
2023-01-13T18:10:42.311Z,71.94
2023-01-13T18:13:09.036Z,71.44
2023-01-13T18:15:35.822Z,71.28
2023-01-13T18:18:02.210Z,71.11
2023-01-13T18:20:28.651Z,71.88
2023-01-13T18:22:54.937Z,71.22
2023-01-13T18:25:22.056Z,70.63
2023-01-13T18:27:48.466Z,70.88
2023-01-13T18:30:15.032Z,70.70
2023-01-13T18:32:42.054Z,70.97
2023-01-13T18:35:09.460Z,70.65
2023-01-13T18:37:38.602Z,70.83
2023-01-13T18:40:06.892Z,70.73
2023-01-13T18:42:33.192Z,71.00
2023-01-13T18:44:59.672Z,71.34
2023-01-13T18:47:28.210Z,70.79
2023-01-13T18:49:55.246Z,70.82
2023-01-13T18:52:23.202Z,72.40
2023-01-13T18:54:50.473Z,70.91
2023-01-13T18:57:17.253Z,70.54
2023-01-13T18:59:43.741Z,70.28
2023-01-13T19:02:18.953Z,69.94
2023-01-13T19:04:45.809Z,70.52
2023-01-13T19:07:13.125Z,70.40
2023-01-13T19:09:39.590Z,70.52
2023-01-13T19:12:06.084Z,70.41
2023-01-13T19:14:32.688Z,70.44
2023-01-13T19:16:59.041Z,70.26
2023-01-13T19:19:25.372Z,70.23
2023-01-13T19:21:51.744Z,70.52
2023-01-13T19:24:18.134Z,69.95
2023-01-13T19:26:44.413Z,69.91
2023-01-13T19:29:10.775Z,70.42
2023-01-13T19:31:37.071Z,70.20
2023-01-13T19:34:03.552Z,70.29
2023-01-13T19:36:29.848Z,70.08
2023-01-13T19:38:56.138Z,70.70
2023-01-13T19:41:22.488Z,70.48
2023-01-13T19:43:48.794Z,70.45
2023-01-13T19:46:15.144Z,70.58
2023-01-13T19:48:41.452Z,70.24
2023-01-13T19:51:07.763Z,70.27
2023-01-13T19:53:34.070Z,70.37
2023-01-13T19:56:01.185Z,70.50
2023-01-13T19:58:27.515Z,70.02
2023-01-13T20:00:54.481Z,70.27
2023-01-13T20:03:24.717Z,69.94
2023-01-13T20:05:52.681Z,70.28
2023-01-13T20:08:20.129Z,70.41
2023-01-13T20:10:47.440Z,70.18
2023-01-13T20:13:14.912Z,70.85
2023-01-13T20:15:42.160Z,70.73
2023-01-13T20:18:09.438Z,71.16
2023-01-13T20:20:37.183Z,70.44
2023-01-13T20:23:03.636Z,70.42
2023-01-13T20:25:29.962Z,70.08
2023-01-13T20:27:56.789Z,70.40
2023-01-13T20:30:23.630Z,70.34
2023-01-13T20:32:50.161Z,69.92
2023-01-13T20:35:16.559Z,70.50
2023-01-13T20:37:43.232Z,70.83
2023-01-13T20:40:13.412Z,70.50
2023-01-13T20:42:39.739Z,70.49
2023-01-13T20:45:06.691Z,70.53
2023-01-13T20:47:32.989Z,70.50
2023-01-13T20:49:59.293Z,69.63
2023-01-13T20:52:25.950Z,69.87
2023-01-13T20:54:52.367Z,69.94
2023-01-13T20:57:18.658Z,70.05
2023-01-13T20:59:45.092Z,69.97
2023-01-13T21:02:14.450Z,70.11
2023-01-13T21:04:40.929Z,70.13
2023-01-13T21:07:07.584Z,70.02
2023-01-13T21:09:34.094Z,70.63
2023-01-13T21:12:00.409Z,70.16
2023-01-13T21:14:27.814Z,70.53
2023-01-13T21:16:54.112Z,70.26
2023-01-13T21:19:20.576Z,70.67
2023-01-13T21:21:46.876Z,70.26
2023-01-13T21:24:13.295Z,70.24
2023-01-13T21:26:39.588Z,70.73
2023-01-13T21:29:05.884Z,70.32
2023-01-13T21:31:32.245Z,70.57
2023-01-13T21:33:58.689Z,70.69
2023-01-13T21:36:27.160Z,71.01
2023-01-13T21:38:55.318Z,71.12
2023-01-13T21:41:22.071Z,70.70
2023-01-13T21:43:48.352Z,70.22
2023-01-13T21:46:15.234Z,70.28
2023-01-13T21:48:41.671Z,70.45
2023-01-13T21:51:07.997Z,71.00
2023-01-13T21:53:34.382Z,70.61
2023-01-13T21:56:00.680Z,70.84
2023-01-13T21:58:27.059Z,70.74
2023-01-13T22:00:53.452Z,70.52
2023-01-13T22:03:19.849Z,70.70
2023-01-13T22:05:46.174Z,70.84
2023-01-13T22:08:12.726Z,70.50
2023-01-13T22:10:39.017Z,71.08
2023-01-13T22:13:05.414Z,70.83
2023-01-13T22:15:31.727Z,71.23
2023-01-13T22:17:58.005Z,70.73
2023-01-13T22:20:25.121Z,71.37
2023-01-13T22:22:51.418Z,70.76
2023-01-13T22:25:17.917Z,71.06
2023-01-13T22:27:44.247Z,71.02
2023-01-13T22:30:19.206Z,70.88
2023-01-13T22:32:46.024Z,71.47
2023-01-13T22:35:13.442Z,72.04
2023-01-13T22:37:39.942Z,72.21
2023-01-13T22:40:08.533Z,72.45
2023-01-13T22:42:39.564Z,73.23
2023-01-13T22:45:08.139Z,73.81
2023-01-13T22:47:34.458Z,73.65
2023-01-13T22:50:00.787Z,73.40
2023-01-13T22:52:27.290Z,74.36
2023-01-13T22:54:53.880Z,73.23
2023-01-13T22:57:21.891Z,74.69
2023-01-13T22:59:50.037Z,74.81
2023-01-13T23:02:16.320Z,73.98
2023-01-13T23:04:42.637Z,74.04
2023-01-13T23:07:08.948Z,73.48
2023-01-13T23:09:35.242Z,73.34
2023-01-13T23:12:01.566Z,72.78
2023-01-13T23:14:27.855Z,73.60
2023-01-13T23:16:54.173Z,73.25
2023-01-13T23:19:20.597Z,72.29
2023-01-13T23:21:47.164Z,71.85
2023-01-13T23:24:13.522Z,72.15
2023-01-13T23:26:40.273Z,72.42
2023-01-13T23:29:09.386Z,72.38
2023-01-13T23:31:35.794Z,73.19
2023-01-13T23:34:02.233Z,73.21
2023-01-13T23:36:28.992Z,73.71
2023-01-13T23:38:57.176Z,74.11
2023-01-13T23:41:25.521Z,74.39
2023-01-13T23:43:53.982Z,74.94
2023-01-13T23:46:20.908Z,74.86
2023-01-13T23:48:47.926Z,74.85
2023-01-13T23:51:15.290Z,75.27
2023-01-13T23:53:44.350Z,74.58
2023-01-13T23:56:14.116Z,74.57
2023-01-13T23:58:41.937Z,75.66
